Time;durP1;ratioP1;P1;durP2;ratioP2;P2;SDS_P1;SDS_P2;PMS_P1;PMS_P2;Temp;Humidity;BMP_temperature;BMP_pressure;BME280_temperature;BME280_humidity;BME280_pressure;Samples;Min_cycle;Max_cycle;Signal;HPM_P1;HPM_P2
2022/08/05 00:00:25;;;;;;;;;11.80;11.20;;;;;32.64;nan;99308.53;5070680;27;8857;-79
2022/08/05 00:03:06;;;;;;;;;12.00;11.80;;;;;32.67;nan;99303.81;5149928;27;8832;-76
2022/08/05 00:05:35;;;;;;;;;12.00;11.40;;;;;32.68;nan;99305.53;5080295;27;8851;-79
2022/08/05 00:08:23;;;;;;;;;14.40;13.80;;;;;32.69;nan;99304.56;5131585;27;8869;-77
2022/08/05 00:11:04;;;;;;;;;11.00;11.00;;;;;32.71;nan;99299.84;5112734;27;8845;-78
2022/08/05 00:13:35;;;;;;;;;11.00;11.00;;;;;32.78;nan;99298.22;5094024;27;8837;-78
2022/08/05 00:16:09;;;;;;;;;11.40;11.40;;;;;32.76;nan;99300.25;5129427;27;8841;-79
2022/08/05 00:18:41;;;;;;;;;9.80;9.80;;;;;32.76;nan;99290.31;5077573;27;8842;-77
2022/08/05 00:21:11;;;;;;;;;12.40;12.40;;;;;32.72;nan;99296.13;5128890;27;8941;-80
2022/08/05 00:23:43;;;;;;;;;11.60;10.60;;;;;32.71;nan;99300.69;5129333;27;8873;-79
2022/08/05 00:26:15;;;;;;;;;12.00;11.80;;;;;32.72;nan;99296.97;5128575;27;8829;-77
2022/08/05 00:28:46;;;;;;;;;10.00;10.00;;;;;32.70;nan;99295.44;5093883;27;8860;-77
2022/08/05 00:31:15;;;;;;;;;12.80;12.80;;;;;32.72;nan;99291.56;5093974;27;8845;-78
2022/08/05 00:33:44;;;;;;;;;14.40;10.80;;;;;32.78;nan;99292.84;5093914;27;8850;-76
2022/08/05 00:36:33;;;;;;;;;11.80;11.80;;;;;32.75;nan;99283.19;5129376;27;8945;-77
2022/08/05 00:39:21;;;;;;;;;12.60;12.60;;;;;32.76;nan;99284.03;5130591;27;8834;-77
2022/08/05 00:41:50;;;;;;;;;9.00;8.40;;;;;32.76;nan;99275.94;5112182;27;8864;-76
2022/08/05 00:44:24;;;;;;;;;10.00;10.00;;;;;32.73;nan;99277.09;5093471;27;8853;-78
2022/08/05 00:46:59;;;;;;;;;11.00;11.00;;;;;32.70;nan;99279.25;5127446;27;9583;-75
2022/08/05 00:49:29;;;;;;;;;9.80;9.80;;;;;32.65;nan;99274.28;5110425;27;8841;-80
2022/08/05 00:52:00;;;;;;;;;11.20;11.20;;;;;32.66;nan;99275.97;5130335;27;8935;-78
2022/08/05 00:54:28;;;;;;;;;10.40;10.00;;;;;32.65;nan;99268.91;5114316;27;8843;-77
2022/08/05 00:56:57;;;;;;;;;9.80;9.80;;;;;32.64;nan;99268.03;5152118;27;8867;-74
2022/08/05 00:59:27;;;;;;;;;9.60;9.00;;;;;32.66;nan;99272.44;5152931;27;8878;-77
2022/08/05 01:02:01;;;;;;;;;13.20;12.00;;;;;32.69;nan;99264.88;5128047;27;8834;-77
2022/08/05 01:04:30;;;;;;;;;11.80;10.00;;;;;32.70;nan;99265.72;5112627;27;8839;-77
2022/08/05 01:06:59;;;;;;;;;11.00;11.00;;;;;32.73;nan;99265.44;5129736;27;8843;-75
2022/08/05 01:09:27;;;;;;;;;11.20;11.00;;;;;32.72;nan;99256.47;5130126;27;8850;-77
2022/08/05 01:12:03;;;;;;;;;11.00;11.00;;;;;32.75;nan;99258.03;5129873;27;8939;-77
2022/08/05 01:14:50;;;;;;;;;11.60;11.60;;;;;32.85;nan;99257.97;5130093;27;8847;-76
2022/08/05 01:17:27;;;;;;;;;12.00;12.00;;;;;32.91;nan;99260.94;5129032;27;9624;-78
2022/08/05 01:20:10;;;;;;;;;12.60;12.60;;;;;32.95;nan;99258.75;5129349;27;8919;-77
2022/08/05 01:22:55;;;;;;;;;12.60;12.60;;;;;32.85;nan;99261.53;5111951;27;8827;-78
2022/08/05 01:25:37;;;;;;;;;17.20;16.60;;;;;32.90;nan;99267.34;5128963;27;8835;-77
2022/08/05 01:28:38;;;;;;;;;12.80;12.80;;;;;33.06;nan;99269.34;5111500;27;8854;-77
2022/08/05 01:31:11;;;;;;;;;16.25;16.25;;;;;32.86;nan;99268.63;5046312;28;8850;-76
2022/08/05 01:33:46;;;;;;;;;20.75;17.25;;;;;32.81;nan;99258.28;5030034;28;8858;-77
2022/08/05 01:36:18;;;;;;;;;11.20;11.20;;;;;32.71;nan;99267.44;5046348;28;8885;-79
2022/08/05 01:38:50;;;;;;;;;14.00;13.00;;;;;32.64;nan;99268.03;5031853;28;8897;-75
2022/08/05 01:41:22;;;;;;;;;17.50;15.75;;;;;32.64;nan;99265.31;5066383;28;8887;-77
2022/08/05 01:43:56;;;;;;;;;19.00;18.50;;;;;32.58;nan;99265.94;5046872;28;9627;-77
2022/08/05 01:46:26;;;;;;;;;18.50;18.50;;;;;32.64;nan;99270.72;5065819;28;8875;-81
2022/08/05 01:49:14;;;;;;;;;16.75;16.75;;;;;32.69;nan;99267.59;5053758;28;8953;-81
2022/08/05 01:51:55;;;;;;;;;18.00;16.00;;;;;32.69;nan;99264.06;5045807;28;8861;-77
2022/08/05 01:54:31;;;;;;;;;16.00;15.40;;;;;32.56;nan;99262.50;5045506;28;8885;-78
2022/08/05 01:57:03;;;;;;;;;16.00;15.20;;;;;32.34;nan;99260.16;5046335;28;8870;-74
2022/08/05 01:59:56;;;;;;;;;14.40;13.60;;;;;32.21;nan;99260.50;5047851;28;8862;-78
2022/08/05 02:02:28;;;;;;;;;13.40;12.80;;;;;32.15;nan;99256.53;5051338;28;8824;-78
2022/08/05 02:04:59;;;;;;;;;10.80;10.80;;;;;32.09;nan;99250.88;5068947;28;8848;-78
2022/08/05 02:07:28;;;;;;;;;12.60;12.60;;;;;32.07;nan;99255.56;5113061;27;9552;-78
2022/08/05 02:09:58;;;;;;;;;11.00;10.80;;;;;31.96;nan;99248.47;5106930;27;9686;-78
2022/08/05 02:12:44;;;;;;;;;10.40;10.40;;;;;31.92;nan;99249.75;5130312;27;8876;-77
2022/08/05 02:15:21;;;;;;;;;15.00;15.00;;;;;31.83;nan;99248.75;5135569;27;8853;-76
2022/08/05 02:17:53;;;;;;;;;16.80;14.80;;;;;31.77;nan;99243.97;5129201;27;8843;-77
2022/08/05 02:20:49;;;;;;;;;15.60;14.60;;;;;31.35;nan;99250.47;5150491;27;8889;-76
2022/08/05 02:23:22;;;;;;;;;14.20;12.80;;;;;31.24;nan;99245.22;5127907;27;8867;-76
2022/08/05 02:25:52;;;;;;;;;14.40;13.40;;;;;31.32;nan;99234.56;5127532;27;8845;-78
2022/08/05 02:28:25;;;;;;;;;13.00;12.00;;;;;31.32;nan;99250.75;5129134;27;8872;-77
2022/08/05 02:31:00;;;;;;;;;12.40;11.20;;;;;31.34;nan;99248.75;5127461;27;8835;-76
2022/08/05 02:33:30;;;;;;;;;10.80;10.80;;;;;31.28;nan;99250.16;5128285;27;8843;-77
2022/08/05 02:36:08;;;;;;;;;13.60;13.00;;;;;31.26;nan;99246.75;5149588;27;9584;-76
2022/08/05 02:38:37;;;;;;;;;12.20;12.20;;;;;31.22;nan;99252.59;5148907;27;8835;-75
2022/08/05 02:41:09;;;;;;;;;13.20;13.20;;;;;31.25;nan;99241.53;5152458;27;8835;-76
2022/08/05 02:43:47;;;;;;;;;13.80;13.60;;;;;31.13;nan;99248.88;5131456;27;8847;-75
2022/08/05 02:46:33;;;;;;;;;14.00;14.00;;;;;30.38;nan;99261.81;5149647;27;8847;-77
2022/08/05 02:49:02;;;;;;;;;16.20;16.20;;;;;30.43;nan;99261.41;5114171;27;8877;-76
2022/08/05 02:51:32;;;;;;;;;18.20;16.00;;;;;30.73;nan;99265.06;5103370;28;8971;-77
2022/08/05 02:54:21;;;;;;;;;19.25;17.25;;;;;30.78;nan;99266.38;5087130;28;8879;-76
2022/08/05 02:57:04;;;;;;;;;16.50;16.50;;;;;31.04;nan;99268.56;5088640;28;8883;-77
2022/08/05 02:59:33;;;;;;;;;16.20;14.40;;;;;31.06;nan;99261.22;5104859;28;9002;-77
2022/08/05 03:02:20;;;;;;;;;15.00;15.00;;;;;31.37;nan;99261.97;5105404;28;9674;-78
2022/08/05 03:04:50;;;;;;;;;16.50;16.00;;;;;31.22;nan;99266.06;5085935;28;8939;-77
2022/08/05 03:07:21;;;;;;;;;15.60;15.00;;;;;31.22;nan;99264.22;5055387;28;9010;-78
2022/08/05 03:10:10;;;;;;;;;19.25;18.50;;;;;30.89;nan;99266.25;5084944;28;8917;-79
2022/08/05 03:12:41;;;;;;;;;17.50;16.50;;;;;31.05;nan;99254.13;5104902;28;8863;-79
2022/08/05 03:15:10;;;;;;;;;16.00;16.00;;;;;31.17;nan;99258.38;5085786;28;8852;-76
2022/08/05 03:17:41;;;;;;;;;13.75;13.25;;;;;31.05;nan;99252.28;5087825;28;8840;-77
2022/08/05 03:20:12;;;;;;;;;14.40;14.40;;;;;30.45;nan;99243.28;5055465;28;8886;-78
2022/08/05 03:22:41;;;;;;;;;13.25;13.25;;;;;30.46;nan;99251.22;5091380;27;8847;-77
2022/08/05 03:25:14;;;;;;;;;29.50;27.50;;;;;30.54;nan;99255.94;5127391;27;8841;-78
2022/08/05 03:28:03;;;;;;;;;17.25;15.50;;;;;30.80;nan;99260.84;5127968;27;8864;-76
2022/08/05 03:30:33;;;;;;;;;17.25;16.75;;;;;30.92;nan;99250.84;5126456;27;8906;-77
2022/08/05 03:33:05;;;;;;;;;15.25;13.50;;;;;30.96;nan;99254.94;5128975;27;8922;-77
2022/08/05 03:35:35;;;;;;;;;14.00;12.75;;;;;30.90;nan;99254.50;5148523;27;8889;-78
2022/08/05 03:38:07;;;;;;;;;20.50;19.25;;;;;30.99;nan;99249.31;5148157;27;8855;-75
2022/08/05 03:40:40;;;;;;;;;19.25;16.00;;;;;31.04;nan;99253.28;5148935;27;8848;-75
2022/08/05 03:43:12;;;;;;;;;16.25;15.50;;;;;31.00;nan;99259.06;5146633;27;8839;-77
2022/08/05 03:46:01;;;;;;;;;16.25;15.25;;;;;31.01;nan;99250.84;5128465;27;8869;-76
2022/08/05 03:48:32;;;;;;;;;17.00;17.00;;;;;31.05;nan;99254.13;5107463;27;8859;-77
2022/08/05 03:51:11;;;;;;;;;16.50;15.50;;;;;31.14;nan;99258.69;5137298;27;9599;-77
2022/08/05 03:54:05;;;;;;;;;29.25;29.25;;;;;31.37;nan;99261.97;5109459;27;8930;-76
2022/08/05 03:56:54;;;;;;;;;16.75;16.75;;;;;31.40;nan;99261.69;5130763;27;8846;-77
2022/08/05 03:59:25;;;;;;;;;20.00;17.00;;;;;31.41;nan;99263.38;5127359;27;8843;-76
2022/08/05 04:02:01;;;;;;;;;13.75;13.75;;;;;31.38;nan;99260.09;5127772;27;8904;-77
2022/08/05 04:04:33;;;;;;;;;15.25;15.00;;;;;31.39;nan;99268.06;5106928;27;8853;-76
2022/08/05 04:07:05;;;;;;;;;19.75;19.75;;;;;31.38;nan;99260.97;5127687;27;8853;-77
2022/08/05 04:09:35;;;;;;;;;21.25;19.75;;;;;31.38;nan;99263.69;5127977;27;8846;-78
2022/08/05 04:12:04;;;;;;;;;41.25;36.00;;;;;31.57;nan;99267.38;5102974;28;8936;-78
2022/08/05 04:14:51;;;;;;;;;22.00;22.00;;;;;31.66;nan;99267.41;5086927;28;9778;-78
2022/08/05 04:17:20;;;;;;;;;17.50;17.00;;;;;31.70;nan;99272.47;5103867;28;9431;-78
2022/08/05 04:19:50;;;;;;;;;15.00;14.50;;;;;31.84;nan;99269.34;5102851;28;8953;-77
2022/08/05 04:22:21;;;;;;;;;31.50;30.75;;;;;31.94;nan;99269.34;5103823;28;8997;-78
2022/08/05 04:24:50;;;;;;;;;37.50;33.75;;;;;32.08;nan;99268.94;5101552;28;8844;-79
2022/08/05 04:27:20;;;;;;;;;17.25;17.25;;;;;32.05;nan;99264.66;5103841;28;8856;-79
2022/08/05 04:30:01;;;;;;;;;37.25;32.50;;;;;31.93;nan;99268.50;5104606;28;8878;-77
2022/08/05 04:32:31;;;;;;;;;25.50;24.00;;;;;31.73;nan;99262.25;5108609;28;8954;-78
2022/08/05 04:35:02;;;;;;;;;21.50;21.00;;;;;32.02;nan;99262.25;5091447;28;8847;-78
2022/08/05 04:37:31;;;;;;;;;19.00;19.00;;;;;32.16;nan;99269.03;5105269;28;8852;-78
2022/08/05 04:40:20;;;;;;;;;17.75;17.75;;;;;32.35;nan;99269.97;5091493;28;8852;-79
2022/08/05 04:42:49;;;;;;;;;22.25;20.00;;;;;32.37;nan;99270.69;5107081;27;8847;-77
2022/08/05 04:45:17;;;;;;;;;19.50;19.50;;;;;32.43;nan;99270.94;5109928;27;8932;-78
2022/08/05 04:47:50;;;;;;;;;17.75;17.75;;;;;32.51;nan;99255.84;5132966;27;8851;-78
2022/08/05 04:50:20;;;;;;;;;19.50;19.25;;;;;32.59;nan;99258.66;5133396;27;8869;-78
2022/08/05 04:53:02;;;;;;;;;19.00;19.00;;;;;32.74;nan;99257.19;5113483;27;8851;-79
2022/08/05 04:55:31;;;;;;;;;19.25;18.75;;;;;32.74;nan;99257.19;5130152;27;8839;-78
2022/08/05 04:58:19;;;;;;;;;18.75;17.75;;;;;32.83;nan;99260.81;5131863;27;8865;-78
2022/08/05 05:00:49;;;;;;;;;28.00;25.75;;;;;32.95;nan;99253.34;5130865;27;8838;-80
2022/08/05 05:03:17;;;;;;;;;21.00;20.25;;;;;32.69;nan;99258.66;5131292;27;8857;-78
2022/08/05 05:05:49;;;;;;;;;18.50;15.25;;;;;32.60;nan;99253.13;5132612;27;8839;-79
2022/08/05 05:08:37;;;;;;;;;16.25;15.00;;;;;32.56;nan;99254.41;5148124;27;8846;-79
2022/08/05 05:11:10;;;;;;;;;14.20;14.20;;;;;32.54;nan;99256.41;5114067;27;8861;-80
2022/08/05 05:13:39;;;;;;;;;16.20;15.00;;;;;32.54;nan;99248.31;5108551;28;8844;-80
2022/08/05 05:16:10;;;;;;;;;22.75;22.75;;;;;32.77;nan;99245.22;5108347;28;8906;-78
2022/08/05 05:18:39;;;;;;;;;23.00;20.00;;;;;33.08;nan;99247.59;5074924;28;8886;-79
2022/08/05 05:21:21;;;;;;;;;21.25;21.25;;;;;33.28;nan;99240.25;5091869;28;8855;-77
2022/08/05 05:23:49;;;;;;;;;25.50;24.50;;;;;33.27;nan;99246.63;5074721;28;8816;-79
2022/08/05 05:26:31;;;;;;;;;17.50;17.00;;;;;33.08;nan;99244.88;5090887;28;8844;-78
2022/08/05 05:29:01;;;;;;;;;13.25;13.25;;;;;33.00;nan;99246.50;5076218;28;8855;-81
2022/08/05 05:31:42;;;;;;;;;18.00;18.00;;;;;32.94;nan;99243.56;5109143;28;9670;-78
2022/08/05 05:34:14;;;;;;;;;21.25;18.50;;;;;32.94;nan;99249.81;5109036;28;9738;-79
2022/08/05 05:36:44;;;;;;;;;21.25;19.25;;;;;32.94;nan;99248.97;5092056;28;8974;-78
2022/08/05 05:39:14;;;;;;;;;17.25;17.25;;;;;33.07;nan;99244.06;5091832;28;8859;-78
2022/08/05 05:41:43;;;;;;;;;21.50;19.00;;;;;33.11;nan;99245.47;5091492;28;8866;-79
2022/08/05 05:44:11;;;;;;;;;24.00;22.00;;;;;33.09;nan;99249.31;5067387;27;8839;-79
2022/08/05 05:46:54;;;;;;;;;17.75;17.00;;;;;32.76;nan;99246.22;5134216;27;8939;-78
2022/08/05 05:49:23;;;;;;;;;19.00;16.75;;;;;32.85;nan;99250.72;5134775;27;8878;-76
2022/08/05 05:51:53;;;;;;;;;16.00;15.25;;;;;32.62;nan;99261.94;5156412;27;8847;-80
2022/08/05 05:54:22;;;;;;;;;22.50;18.25;;;;;32.13;nan;99252.28;5133293;27;8938;-78
2022/08/05 05:57:10;;;;;;;;;22.25;21.25;;;;;32.63;nan;99252.84;5113317;27;8884;-79
2022/08/05 05:59:41;;;;;;;;;19.50;18.75;;;;;33.12;nan;99249.00;5130972;27;8872;-78
2022/08/05 06:02:10;;;;;;;;;18.50;18.00;;;;;33.37;nan;99259.06;5113230;27;8863;-79
2022/08/05 06:04:39;;;;;;;;;17.50;17.50;;;;;33.57;nan;99254.38;5112670;27;8841;-77
2022/08/05 06:07:09;;;;;;;;;17.50;16.50;;;;;33.50;nan;99260.53;5096335;27;9721;-77
2022/08/05 06:09:38;;;;;;;;;18.50;17.75;;;;;33.73;nan;99264.50;5131647;27;8865;-78
2022/08/05 06:12:26;;;;;;;;;17.25;17.25;;;;;33.57;nan;99259.78;5131366;27;8838;-78
2022/08/05 06:14:55;;;;;;;;;16.00;14.75;;;;;33.64;nan;99259.19;5112479;27;10205;-77
2022/08/05 06:17:24;;;;;;;;;18.75;17.75;;;;;33.81;nan;99254.75;5113682;27;8853;-79
2022/08/05 06:19:58;;;;;;;;;15.00;15.00;;;;;33.64;nan;99264.59;5131661;27;8865;-78
2022/08/05 06:22:30;;;;;;;;;20.50;18.25;;;;;33.66;nan;99259.88;5131067;27;8868;-80
2022/08/05 06:25:01;;;;;;;;;15.75;15.75;;;;;33.87;nan;99259.53;5095153;27;8933;-81
2022/08/05 06:27:50;;;;;;;;;16.25;15.50;;;;;33.61;nan;99265.69;5112389;27;8837;-79
2022/08/05 06:30:38;;;;;;;;;15.75;14.75;;;;;33.54;nan;99259.25;5130585;27;8864;-81
2022/08/05 06:33:07;;;;;;;;;16.00;15.00;;;;;34.03;nan;99265.06;5129021;27;8950;-71
2022/08/05 06:35:37;;;;;;;;;16.25;16.25;;;;;34.52;nan;99262.66;5093427;27;8845;-75
2022/08/05 06:38:27;;;;;;;;;19.75;19.75;;;;;34.98;nan;99267.78;5143498;27;8851;-75
2022/08/05 06:41:04;;;;;;;;;17.00;17.00;;;;;35.31;nan;99270.59;5141855;27;8869;-77
2022/08/05 06:43:36;;;;;;;;;12.25;12.25;;;;;35.59;nan;99275.72;5131295;27;8868;-78
2022/08/05 06:46:25;;;;;;;;;18.50;17.00;;;;;35.73;nan;99277.78;5135617;27;8957;-75
2022/08/05 06:48:58;;;;;;;;;18.75;18.25;;;;;35.99;nan;99283.00;5140175;27;8886;-74
2022/08/05 06:51:29;;;;;;;;;20.00;19.00;;;;;35.87;nan;99285.22;5151032;27;8861;-75
2022/08/05 06:54:01;;;;;;;;;18.25;17.75;;;;;36.22;nan;99275.06;5071465;27;9883;-76
2022/08/05 06:56:31;;;;;;;;;19.75;19.75;;;;;36.48;nan;99280.22;5135453;27;8845;-77
2022/08/05 06:59:03;;;;;;;;;18.00;18.00;;;;;36.49;nan;99281.94;5130670;27;8876;-76
2022/08/05 07:01:36;;;;;;;;;20.25;18.00;;;;;36.59;nan;99278.16;5150616;27;8890;-79
2022/08/05 07:04:09;;;;;;;;;19.75;19.00;;;;;36.70;nan;99285.97;5138140;27;8841;-78
2022/08/05 07:06:38;;;;;;;;;20.50;20.50;;;;;36.80;nan;99283.03;5121870;27;8849;-76
2022/08/05 07:09:08;;;;;;;;;23.25;23.25;;;;;36.90;nan;99285.53;5117801;27;8859;-77
2022/08/05 07:11:36;;;;;;;;;21.75;21.00;;;;;36.96;nan;99277.53;5120278;27;8973;-75
2022/08/05 07:17:04;;;;;;;;;21.25;20.25;;;;;37.23;nan;99275.38;5083958;28;9025;-70
2022/08/05 07:19:55;;;;;;;;;21.50;21.50;;;;;37.33;nan;99270.53;5068961;28;8855;-72
2022/08/05 07:22:44;;;;;;;;;20.00;20.00;;;;;37.53;nan;99273.63;5064045;28;8986;-71
2022/08/05 07:25:14;;;;;;;;;19.25;19.25;;;;;37.57;nan;99280.38;5066808;28;8845;-76
2022/08/05 07:28:03;;;;;;;;;21.50;17.75;;;;;37.71;nan;99278.75;5064356;28;8867;-72
2022/08/05 07:30:37;;;;;;;;;17.50;17.50;;;;;37.79;nan;99281.44;5083331;28;8995;-76
2022/08/05 07:33:09;;;;;;;;;16.75;15.75;;;;;37.71;nan;99273.31;5067241;28;8857;-71
2022/08/05 07:35:45;;;;;;;;;17.50;15.25;;;;;37.89;nan;99280.34;5084890;28;8877;-75
2022/08/05 07:38:30;;;;;;;;;14.25;13.75;;;;;38.04;nan;99281.22;5082801;28;8845;-71
2022/08/05 07:41:04;;;;;;;;;14.00;11.75;;;;;38.00;nan;99283.44;5051902;28;9717;-71
2022/08/05 07:43:54;;;;;;;;;14.00;14.00;;;;;38.09;nan;99283.41;5074046;28;8882;-72
2022/08/05 07:46:25;;;;;;;;;15.50;14.50;;;;;37.99;nan;99291.78;5080808;28;9836;-72
2022/08/05 07:48:55;;;;;;;;;15.75;15.75;;;;;38.02;nan;99286.00;5067383;27;9609;-71
2022/08/05 07:51:30;;;;;;;;;16.00;16.00;;;;;38.22;nan;99289.03;5118262;27;8857;-73
2022/08/05 07:54:05;;;;;;;;;14.25;13.50;;;;;38.19;nan;99279.38;5129957;27;9576;-73
2022/08/05 07:56:37;;;;;;;;;12.00;11.00;;;;;38.31;nan;99281.66;5129542;27;8864;-72
2022/08/05 07:59:26;;;;;;;;;16.00;14.75;;;;;38.28;nan;99287.44;5148281;27;8889;-76
2022/08/05 08:02:06;;;;;;;;;13.50;13.50;;;;;38.35;nan;99281.06;5144557;27;8863;-72
2022/08/05 08:04:43;;;;;;;;;16.00;16.00;;;;;38.31;nan;99287.09;5137304;27;8837;-75
2022/08/05 08:07:12;;;;;;;;;12.00;12.00;;;;;38.40;nan;99283.25;5093947;27;8837;-77
2022/08/05 08:09:41;;;;;;;;;14.75;13.75;;;;;38.40;nan;99291.41;5130942;27;8855;-74
2022/08/05 08:12:12;;;;;;;;;18.75;13.75;;;;;38.34;nan;99286.69;5150379;27;9617;-70
2022/08/05 08:15:01;;;;;;;;;16.00;15.50;;;;;38.33;nan;99291.31;5114173;27;8849;-73
2022/08/05 08:17:31;;;;;;;;;10.75;10.75;;;;;38.35;nan;99286.50;5132334;27;8876;-73
2022/08/05 08:20:02;;;;;;;;;16.50;16.25;;;;;38.35;nan;99285.69;5131841;27;8857;-71
2022/08/05 08:22:51;;;;;;;;;12.75;12.75;;;;;38.46;nan;99293.38;5078499;27;8887;-73
2022/08/05 08:25:20;;;;;;;;;16.00;14.75;;;;;38.59;nan;99296.34;5132188;27;8897;-80
2022/08/05 08:27:57;;;;;;;;;13.00;12.75;;;;;38.71;nan;99287.69;5078846;27;8857;-78
2022/08/05 08:30:26;;;;;;;;;11.50;11.50;;;;;38.41;nan;99293.09;5128318;27;8869;-80
2022/08/05 08:33:09;;;;;;;;;14.25;14.25;;;;;38.10;nan;99290.53;5131212;27;9652;-79
2022/08/05 08:35:41;;;;;;;;;11.50;11.50;;;;;38.35;nan;99289.25;5089772;28;8964;-80
2022/08/05 08:38:21;;;;;;;;;15.25;14.00;;;;;38.47;nan;99291.50;5057089;28;8845;-80
2022/08/05 08:41:06;;;;;;;;;14.25;14.25;;;;;38.59;nan;99287.31;5090354;28;8843;-80
2022/08/05 08:43:37;;;;;;;;;12.25;12.25;;;;;38.63;nan;99288.63;5073274;28;8923;-79
2022/08/05 08:46:28;;;;;;;;;17.50;16.75;;;;;38.67;nan;99298.09;5090609;28;8834;-82
2022/08/05 08:48:57;;;;;;;;;15.25;15.00;;;;;38.79;nan;99291.16;5090215;28;8862;-80
2022/08/05 08:51:47;;;;;;;;;16.50;16.00;;;;;38.86;nan;99295.84;5093752;28;8886;-81
2022/08/05 08:54:32;;;;;;;;;14.00;13.75;;;;;38.87;nan;99289.34;5072335;28;8856;-80
2022/08/05 08:57:01;;;;;;;;;14.50;13.75;;;;;38.84;nan;99289.72;5078161;28;8900;-79
2022/08/05 08:59:31;;;;;;;;;17.25;17.25;;;;;38.90;nan;99288.97;5075086;28;8842;-79
2022/08/05 09:02:05;;;;;;;;;17.00;15.50;;;;;38.67;nan;99286.38;5070862;28;8878;-78
2022/08/05 09:04:37;;;;;;;;;14.25;13.50;;;;;38.85;nan;99283.22;5088909;28;8927;-81
2022/08/05 09:07:26;;;;;;;;;12.25;12.25;;;;;38.81;nan;99280.03;5114587;27;8904;-79
2022/08/05 09:09:56;;;;;;;;;15.00;14.00;;;;;38.88;nan;99280.97;5132907;27;9622;-79
2022/08/05 09:12:25;;;;;;;;;17.50;17.50;;;;;38.70;nan;99275.06;5133160;27;8977;-77
2022/08/05 09:14:56;;;;;;;;;15.25;14.00;;;;;38.83;nan;99283.44;5128584;27;8853;-79
2022/08/05 09:17:33;;;;;;;;;15.75;15.75;;;;;38.86;nan;99284.94;5122522;27;8960;-81
2022/08/05 09:20:11;;;;;;;;;15.25;14.75;;;;;38.90;nan;99278.91;5132841;27;8876;-82
2022/08/05 09:23:09;;;;;;;;;15.25;15.00;;;;;39.19;nan;99277.19;5110437;27;8942;-79
2022/08/05 09:25:49;;;;;;;;;12.25;12.25;;;;;39.02;nan;99279.31;5036556;28;8884;-80
2022/08/05 09:28:31;;;;;;;;;14.00;14.00;;;;;39.07;nan;99275.97;5070192;28;8870;-79
2022/08/05 09:31:05;;;;;;;;;14.00;12.50;;;;;38.94;nan;99269.31;5086966;28;8854;-78
2022/08/05 09:33:55;;;;;;;;;11.25;10.50;;;;;39.05;nan;99275.34;5087709;28;8869;-79
2022/08/05 09:36:25;;;;;;;;;14.50;14.00;;;;;39.16;nan;99269.38;5070076;28;8995;-79
2022/08/05 09:38:59;;;;;;;;;11.00;11.00;;;;;39.07;nan;99265.91;5087624;28;8862;-78
2022/08/05 09:41:28;;;;;;;;;13.00;13.00;;;;;39.10;nan;99261.97;5087309;28;8868;-77
2022/08/05 09:44:00;;;;;;;;;11.25;11.25;;;;;39.16;nan;99266.66;5076218;28;9658;-79
2022/08/05 09:46:33;;;;;;;;;12.00;12.00;;;;;39.18;nan;99262.69;5069414;28;8974;-78
2022/08/05 09:49:03;;;;;;;;;13.50;12.50;;;;;39.30;nan;99263.03;5026673;28;9615;-80
2022/08/05 09:51:36;;;;;;;;;12.50;11.75;;;;;39.32;nan;99260.97;5067279;28;8847;-81
2022/08/05 09:54:07;;;;;;;;;12.00;12.00;;;;;39.26;nan;99261.72;5068000;28;8937;-81
2022/08/05 09:56:38;;;;;;;;;11.00;11.00;;;;;39.19;nan;99258.94;5072305;28;8834;-79
2022/08/05 09:59:09;;;;;;;;;10.00;9.25;;;;;39.24;nan;99255.59;5052134;28;8867;-79
2022/08/05 10:01:45;;;;;;;;;12.25;12.25;;;;;39.31;nan;99256.53;5068293;27;8924;-79
2022/08/05 10:04:15;;;;;;;;;13.00;13.00;;;;;38.86;nan;99250.31;5130434;27;8925;-79
2022/08/05 10:06:54;;;;;;;;;12.75;12.75;;;;;39.30;nan;99249.41;5095116;27;8891;-78
2022/08/05 10:09:26;;;;;;;;;14.25;14.25;;;;;39.12;nan;99243.53;5104930;27;8873;-77
2022/08/05 10:12:08;;;;;;;;;11.75;11.75;;;;;39.39;nan;99248.19;5151207;27;8861;-81
2022/08/05 10:14:46;;;;;;;;;17.50;17.50;;;;;39.12;nan;99249.81;5151141;27;8851;-78
2022/08/05 10:17:16;;;;;;;;;13.50;13.50;;;;;39.31;nan;99261.97;5150382;27;9596;-80
2022/08/05 10:20:07;;;;;;;;;11.00;11.00;;;;;39.16;nan;99245.66;5148764;27;9029;-79
2022/08/05 10:22:40;;;;;;;;;12.25;12.00;;;;;39.20;nan;99235.22;5131765;27;8855;-78
2022/08/05 10:25:10;;;;;;;;;13.50;12.50;;;;;38.94;nan;99239.31;5114836;27;8855;-79
2022/08/05 10:27:42;;;;;;;;;13.00;13.00;;;;;38.74;nan;99243.69;5132336;27;9623;-78
2022/08/05 10:30:31;;;;;;;;;13.25;12.50;;;;;38.89;nan;99241.78;5134897;27;8946;-77
2022/08/05 10:33:23;;;;;;;;;13.00;13.00;;;;;38.50;nan;99233.91;5092711;27;8843;-78
2022/08/05 10:35:53;;;;;;;;;12.50;11.75;;;;;38.81;nan;99241.88;5151879;27;8848;-79
2022/08/05 10:38:29;;;;;;;;;11.00;11.00;;;;;38.77;nan;99227.81;5152769;27;8835;-77
2022/08/05 10:41:08;;;;;;;;;13.50;13.00;;;;;38.95;nan;99221.91;5152768;27;8832;-79
2022/08/05 10:43:48;;;;;;;;;12.50;12.50;;;;;39.22;nan;99235.03;5121795;27;8934;-79
2022/08/05 10:46:20;;;;;;;;;12.00;12.00;;;;;39.36;nan;99231.41;5130325;27;8913;-79
2022/08/05 10:48:57;;;;;;;;;10.75;10.75;;;;;39.43;nan;99232.28;5130556;27;8842;-78
2022/08/05 10:51:42;;;;;;;;;12.25;12.25;;;;;39.69;nan;99233.59;5094514;27;8823;-79
2022/08/05 10:54:18;;;;;;;;;11.75;11.50;;;;;39.60;nan;99232.88;5132986;27;8960;-78
2022/08/05 10:56:56;;;;;;;;;14.00;13.50;;;;;39.68;nan;99223.72;5126719;27;8869;-78
2022/08/05 10:59:26;;;;;;;;;14.00;14.00;;;;;39.72;nan;99223.13;5110868;27;8880;-79
2022/08/05 11:02:16;;;;;;;;;15.00;15.00;;;;;39.77;nan;99214.34;5099716;27;8854;-81
2022/08/05 11:05:08;;;;;;;;;12.25;12.25;;;;;40.06;nan;99207.84;5112592;27;8849;-80
2022/08/05 11:07:56;;;;;;;;;13.25;12.75;;;;;40.33;nan;99206.13;5112642;27;8843;-80
2022/08/05 11:10:35;;;;;;;;;13.00;12.25;;;;;40.27;nan;99203.34;5124167;27;8834;-79
2022/08/05 11:13:07;;;;;;;;;13.25;12.75;;;;;40.38;nan;99201.94;5127399;27;8885;-80
2022/08/05 11:15:39;;;;;;;;;14.00;14.00;;;;;40.41;nan;99194.19;5113287;27;8862;-79
2022/08/05 11:18:31;;;;;;;;;14.50;13.25;;;;;40.25;nan;99199.97;5142717;27;8862;-79
2022/08/05 11:21:04;;;;;;;;;12.25;12.25;;;;;40.19;nan;99196.13;5126010;27;8932;-81
2022/08/05 11:23:43;;;;;;;;;12.50;11.75;;;;;40.32;nan;99190.78;5108085;27;9008;-80
2022/08/05 11:26:32;;;;;;;;;13.75;13.25;;;;;40.34;nan;99193.31;5135111;27;8848;-84
2022/08/05 11:29:03;;;;;;;;;11.25;10.50;;;;;40.60;nan;99198.06;5155764;27;8831;-79
2022/08/05 11:31:44;;;;;;;;;16.25;15.50;;;;;40.65;nan;99197.47;5124507;27;8925;-79
2022/08/05 11:34:37;;;;;;;;;12.25;12.25;;;;;40.81;nan;99188.06;5141184;27;8855;-82
2022/08/05 11:37:07;;;;;;;;;12.75;12.25;;;;;40.82;nan;99193.34;5132940;27;8887;-81
2022/08/05 11:39:56;;;;;;;;;14.25;14.25;;;;;41.00;nan;99200.94;5131443;27;8958;-79
2022/08/05 11:42:33;;;;;;;;;15.50;15.50;;;;;41.19;nan;99192.97;5107577;27;8838;-77
2022/08/05 11:45:06;;;;;;;;;11.75;11.75;;;;;41.29;nan;99190.72;5092592;28;8839;-79
2022/08/05 11:47:42;;;;;;;;;13.00;12.50;;;;;41.41;nan;99191.75;5098255;28;8830;-77
2022/08/05 11:50:16;;;;;;;;;13.25;13.25;;;;;41.56;nan;99186.06;5080396;28;8882;-78
2022/08/05 11:52:46;;;;;;;;;13.00;13.00;;;;;41.19;nan;99185.59;5076823;28;8877;-79
2022/08/05 11:55:17;;;;;;;;;14.00;13.25;;;;;41.47;nan;99188.19;5073726;28;8892;-82
2022/08/05 11:57:46;;;;;;;;;10.00;10.00;;;;;41.60;nan;99187.34;5071673;28;8877;-80
2022/08/05 12:00:35;;;;;;;;;12.75;12.75;;;;;41.55;nan;99178.91;5088095;28;8852;-82
2022/08/05 12:03:20;;;;;;;;;13.00;13.00;;;;;41.76;nan;99188.84;5085872;28;8846;-82
2022/08/05 12:06:03;;;;;;;;;14.00;14.00;;;;;42.01;nan;99183.53;5066696;28;8841;-80
2022/08/05 12:08:40;;;;;;;;;13.75;13.75;;;;;42.37;nan;99179.44;5102502;28;8969;-78
2022/08/05 12:11:19;;;;;;;;;13.00;12.00;;;;;42.69;nan;99181.41;5052456;28;8923;-80
2022/08/05 12:13:55;;;;;;;;;9.50;9.50;;;;;43.15;nan;99180.31;5094087;28;8886;-78
2022/08/05 12:16:31;;;;;;;;;11.50;11.50;;;;;43.17;nan;99184.53;5108338;27;8908;-79
2022/08/05 12:19:00;;;;;;;;;11.50;11.50;;;;;43.66;nan;99175.72;5128381;27;8871;-78
2022/08/05 12:21:31;;;;;;;;;11.75;11.75;;;;;44.06;nan;99164.34;5110274;27;8868;-78
2022/08/05 12:24:03;;;;;;;;;10.25;9.75;;;;;44.37;nan;99171.59;5114465;27;8842;-81